sensor_id;sensor_type;location;lat;lon;timestamp;P1;durP1;ratioP1;P2;durP2;ratioP2
49548;SDS011;35450;44.518;7.466;2023-04-24T00:02:40;18.60;;;15.38;;
49548;SDS011;35450;44.518;7.466;2023-04-24T00:05:50;23.08;;;14.68;;
49548;SDS011;35450;44.518;7.466;2023-04-24T00:08:55;20.27;;;15.13;;
49548;SDS011;35450;44.518;7.466;2023-04-24T00:11:59;19.25;;;14.80;;
49548;SDS011;35450;44.518;7.466;2023-04-24T00:15:03;17.17;;;14.02;;
49548;SDS011;35450;44.518;7.466;2023-04-24T00:18:08;19.10;;;14.68;;
49548;SDS011;35450;44.518;7.466;2023-04-24T00:21:12;21.40;;;15.02;;
49548;SDS011;35450;44.518;7.466;2023-04-24T00:24:16;20.70;;;14.07;;
49548;SDS011;35450;44.518;7.466;2023-04-24T00:27:21;18.27;;;14.27;;
49548;SDS011;35450;44.518;7.466;2023-04-24T00:30:24;16.35;;;13.80;;
49548;SDS011;35450;44.518;7.466;2023-04-24T00:33:28;21.13;;;14.98;;
49548;SDS011;35450;44.518;7.466;2023-04-24T00:36:32;23.15;;;16.02;;
49548;SDS011;35450;44.518;7.466;2023-04-24T00:39:36;23.10;;;15.38;;
49548;SDS011;35450;44.518;7.466;2023-04-24T00:42:40;17.88;;;15.00;;
49548;SDS011;35450;44.518;7.466;2023-04-24T00:45:45;22.48;;;15.00;;
49548;SDS011;35450;44.518;7.466;2023-04-24T00:48:50;18.27;;;15.10;;
49548;SDS011;35450;44.518;7.466;2023-04-24T00:51:54;16.88;;;13.63;;
49548;SDS011;35450;44.518;7.466;2023-04-24T00:54:58;17.85;;;12.43;;
49548;SDS011;35450;44.518;7.466;2023-04-24T00:58:02;21.25;;;11.52;;
49548;SDS011;35450;44.518;7.466;2023-04-24T01:01:06;16.10;;;11.23;;
49548;SDS011;35450;44.518;7.466;2023-04-24T01:04:11;18.35;;;11.50;;
49548;SDS011;35450;44.518;7.466;2023-04-24T01:07:17;20.33;;;14.18;;
49548;SDS011;35450;44.518;7.466;2023-04-24T01:10:25;21.45;;;15.57;;
49548;SDS011;35450;44.518;7.466;2023-04-24T01:13:31;18.83;;;15.18;;
49548;SDS011;35450;44.518;7.466;2023-04-24T01:16:36;20.27;;;16.20;;
49548;SDS011;35450;44.518;7.466;2023-04-24T01:19:41;17.85;;;15.63;;
49548;SDS011;35450;44.518;7.466;2023-04-24T01:22:48;22.45;;;16.15;;
49548;SDS011;35450;44.518;7.466;2023-04-24T01:25:52;20.08;;;14.15;;
49548;SDS011;35450;44.518;7.466;2023-04-24T01:28:56;19.98;;;15.20;;
49548;SDS011;35450;44.518;7.466;2023-04-24T01:32:00;21.35;;;15.82;;
49548;SDS011;35450;44.518;7.466;2023-04-24T01:35:04;19.75;;;14.95;;
49548;SDS011;35450;44.518;7.466;2023-04-24T01:38:08;19.52;;;15.55;;
49548;SDS011;35450;44.518;7.466;2023-04-24T01:41:13;19.52;;;14.75;;
49548;SDS011;35450;44.518;7.466;2023-04-24T01:44:17;21.30;;;15.05;;
49548;SDS011;35450;44.518;7.466;2023-04-24T01:47:22;20.17;;;15.63;;
49548;SDS011;35450;44.518;7.466;2023-04-24T01:50:27;20.75;;;15.32;;
49548;SDS011;35450;44.518;7.466;2023-04-24T01:53:31;19.85;;;15.75;;
49548;SDS011;35450;44.518;7.466;2023-04-24T01:56:35;18.88;;;16.13;;
49548;SDS011;35450;44.518;7.466;2023-04-24T01:59:43;22.13;;;16.20;;
49548;SDS011;35450;44.518;7.466;2023-04-24T02:02:47;17.02;;;14.85;;
49548;SDS011;35450;44.518;7.466;2023-04-24T02:05:51;20.77;;;15.68;;
49548;SDS011;35450;44.518;7.466;2023-04-24T02:08:55;17.35;;;13.77;;
49548;SDS011;35450;44.518;7.466;2023-04-24T02:11:59;17.83;;;13.60;;
49548;SDS011;35450;44.518;7.466;2023-04-24T02:15:03;21.90;;;15.35;;
49548;SDS011;35450;44.518;7.466;2023-04-24T02:18:08;23.35;;;15.00;;
49548;SDS011;35450;44.518;7.466;2023-04-24T02:21:12;19.02;;;14.93;;
49548;SDS011;35450;44.518;7.466;2023-04-24T02:24:16;16.85;;;14.00;;
49548;SDS011;35450;44.518;7.466;2023-04-24T02:27:20;17.25;;;14.25;;
49548;SDS011;35450;44.518;7.466;2023-04-24T02:30:24;19.75;;;14.85;;
49548;SDS011;35450;44.518;7.466;2023-04-24T02:33:28;19.83;;;14.55;;
49548;SDS011;35450;44.518;7.466;2023-04-24T02:36:32;21.63;;;14.60;;
49548;SDS011;35450;44.518;7.466;2023-04-24T02:39:36;20.33;;;14.15;;
49548;SDS011;35450;44.518;7.466;2023-04-24T02:42:40;18.23;;;13.20;;
49548;SDS011;35450;44.518;7.466;2023-04-24T02:45:43;19.70;;;12.77;;
49548;SDS011;35450;44.518;7.466;2023-04-24T02:48:48;16.15;;;13.82;;
49548;SDS011;35450;44.518;7.466;2023-04-24T02:51:52;15.07;;;12.40;;
49548;SDS011;35450;44.518;7.466;2023-04-24T02:54:56;15.38;;;12.65;;
49548;SDS011;35450;44.518;7.466;2023-04-24T02:58:00;16.92;;;13.38;;
49548;SDS011;35450;44.518;7.466;2023-04-24T03:01:04;16.65;;;12.82;;
49548;SDS011;35450;44.518;7.466;2023-04-24T03:04:08;21.38;;;13.73;;
49548;SDS011;35450;44.518;7.466;2023-04-24T03:07:13;19.85;;;15.07;;
49548;SDS011;35450;44.518;7.466;2023-04-24T03:10:18;21.02;;;15.00;;
49548;SDS011;35450;44.518;7.466;2023-04-24T03:13:22;23.08;;;13.90;;
49548;SDS011;35450;44.518;7.466;2023-04-24T03:16:25;18.50;;;13.13;;
49548;SDS011;35450;44.518;7.466;2023-04-24T03:19:32;18.08;;;14.23;;
49548;SDS011;35450;44.518;7.466;2023-04-24T03:22:41;18.35;;;13.65;;
49548;SDS011;35450;44.518;7.466;2023-04-24T03:25:46;14.98;;;11.77;;
49548;SDS011;35450;44.518;7.466;2023-04-24T03:28:53;12.35;;;9.43;;
49548;SDS011;35450;44.518;7.466;2023-04-24T03:31:57;9.30;;;7.82;;
49548;SDS011;35450;44.518;7.466;2023-04-24T03:35:01;9.95;;;7.93;;
49548;SDS011;35450;44.518;7.466;2023-04-24T03:38:05;5.63;;;4.50;;
49548;SDS011;35450;44.518;7.466;2023-04-24T03:41:28;5.88;;;5.28;;
49548;SDS011;35450;44.518;7.466;2023-04-24T03:44:39;6.47;;;4.72;;
49548;SDS011;35450;44.518;7.466;2023-04-24T03:47:43;7.47;;;5.10;;
49548;SDS011;35450;44.518;7.466;2023-04-24T03:50:47;8.68;;;6.28;;
49548;SDS011;35450;44.518;7.466;2023-04-24T03:53:52;9.98;;;7.05;;
49548;SDS011;35450;44.518;7.466;2023-04-24T03:56:59;12.65;;;7.57;;
49548;SDS011;35450;44.518;7.466;2023-04-24T04:00:04;18.20;;;7.55;;
49548;SDS011;35450;44.518;7.466;2023-04-24T04:03:18;11.05;;;6.38;;
49548;SDS011;35450;44.518;7.466;2023-04-24T04:06:23;7.25;;;4.85;;
49548;SDS011;35450;44.518;7.466;2023-04-24T04:09:29;5.55;;;3.60;;
49548;SDS011;35450;44.518;7.466;2023-04-24T04:12:33;6.07;;;4.28;;
49548;SDS011;35450;44.518;7.466;2023-04-24T04:15:37;6.20;;;4.50;;
49548;SDS011;35450;44.518;7.466;2023-04-24T04:18:41;4.70;;;2.78;;
49548;SDS011;35450;44.518;7.466;2023-04-24T04:21:45;4.97;;;2.95;;
49548;SDS011;35450;44.518;7.466;2023-04-24T04:24:58;6.03;;;5.22;;
49548;SDS011;35450;44.518;7.466;2023-04-24T04:28:04;8.02;;;6.05;;
49548;SDS011;35450;44.518;7.466;2023-04-24T04:31:09;7.45;;;5.85;;
49548;SDS011;35450;44.518;7.466;2023-04-24T04:34:13;8.52;;;5.95;;
49548;SDS011;35450;44.518;7.466;2023-04-24T04:37:19;8.02;;;5.68;;
49548;SDS011;35450;44.518;7.466;2023-04-24T04:40:43;5.50;;;4.78;;
49548;SDS011;35450;44.518;7.466;2023-04-24T04:43:49;9.93;;;5.85;;
49548;SDS011;35450;44.518;7.466;2023-04-24T04:46:54;7.13;;;5.25;;
49548;SDS011;35450;44.518;7.466;2023-04-24T04:50:08;8.75;;;4.70;;
49548;SDS011;35450;44.518;7.466;2023-04-24T04:53:14;7.30;;;5.20;;
49548;SDS011;35450;44.518;7.466;2023-04-24T04:56:19;12.43;;;5.68;;
49548;SDS011;35450;44.518;7.466;2023-04-24T04:59:23;14.15;;;6.18;;
49548;SDS011;35450;44.518;7.466;2023-04-24T05:02:33;13.55;;;7.70;;
49548;SDS011;35450;44.518;7.466;2023-04-24T05:05:37;12.65;;;8.52;;
49548;SDS011;35450;44.518;7.466;2023-04-24T05:08:45;11.90;;;8.57;;
49548;SDS011;35450;44.518;7.466;2023-04-24T05:12:01;13.73;;;9.35;;
49548;SDS011;35450;44.518;7.466;2023-04-24T05:15:10;17.15;;;11.10;;
49548;SDS011;35450;44.518;7.466;2023-04-24T05:18:14;13.88;;;10.25;;
49548;SDS011;35450;44.518;7.466;2023-04-24T05:21:18;14.63;;;10.63;;
49548;SDS011;35450;44.518;7.466;2023-04-24T05:24:27;13.05;;;10.15;;
49548;SDS011;35450;44.518;7.466;2023-04-24T05:27:36;11.85;;;8.15;;
49548;SDS011;35450;44.518;7.466;2023-04-24T05:30:45;16.00;;;6.10;;
49548;SDS011;35450;44.518;7.466;2023-04-24T05:33:50;16.65;;;6.18;;
49548;SDS011;35450;44.518;7.466;2023-04-24T05:36:55;14.35;;;8.80;;
49548;SDS011;35450;44.518;7.466;2023-04-24T05:39:59;15.77;;;10.00;;
49548;SDS011;35450;44.518;7.466;2023-04-24T05:43:03;24.60;;;10.27;;
49548;SDS011;35450;44.518;7.466;2023-04-24T05:46:07;14.45;;;8.00;;
49548;SDS011;35450;44.518;7.466;2023-04-24T05:49:11;12.85;;;7.95;;
49548;SDS011;35450;44.518;7.466;2023-04-24T05:52:15;14.65;;;6.63;;
49548;SDS011;35450;44.518;7.466;2023-04-24T05:55:19;9.73;;;6.57;;
49548;SDS011;35450;44.518;7.466;2023-04-24T05:58:24;12.25;;;6.45;;
49548;SDS011;35450;44.518;7.466;2023-04-24T06:01:28;7.82;;;5.18;;
49548;SDS011;35450;44.518;7.466;2023-04-24T06:04:42;12.05;;;7.03;;
49548;SDS011;35450;44.518;7.466;2023-04-24T06:07:47;13.25;;;6.68;;
49548;SDS011;35450;44.518;7.466;2023-04-24T06:10:52;6.30;;;5.20;;
49548;SDS011;35450;44.518;7.466;2023-04-24T06:13:58;5.25;;;4.10;;
49548;SDS011;35450;44.518;7.466;2023-04-24T06:17:15;6.00;;;3.97;;
49548;SDS011;35450;44.518;7.466;2023-04-24T06:20:20;9.50;;;4.30;;
49548;SDS011;35450;44.518;7.466;2023-04-24T06:23:24;5.57;;;3.85;;
49548;SDS011;35450;44.518;7.466;2023-04-24T06:26:28;5.30;;;3.78;;
49548;SDS011;35450;44.518;7.466;2023-04-24T06:29:32;7.63;;;3.15;;
49548;SDS011;35450;44.518;7.466;2023-04-24T06:32:37;5.80;;;3.83;;
49548;SDS011;35450;44.518;7.466;2023-04-24T06:35:40;6.75;;;2.75;;
49548;SDS011;35450;44.518;7.466;2023-04-24T06:38:45;3.53;;;2.80;;
49548;SDS011;35450;44.518;7.466;2023-04-24T06:41:49;3.78;;;2.55;;
49548;SDS011;35450;44.518;7.466;2023-04-24T06:44:57;4.85;;;2.80;;
49548;SDS011;35450;44.518;7.466;2023-04-24T06:48:01;3.40;;;1.98;;
49548;SDS011;35450;44.518;7.466;2023-04-24T06:51:06;6.32;;;2.10;;
49548;SDS011;35450;44.518;7.466;2023-04-24T06:54:10;3.17;;;1.80;;
49548;SDS011;35450;44.518;7.466;2023-04-24T06:57:14;2.22;;;1.63;;
49548;SDS011;35450;44.518;7.466;2023-04-24T07:00:19;3.25;;;2.00;;
49548;SDS011;35450;44.518;7.466;2023-04-24T07:03:23;5.93;;;2.45;;
49548;SDS011;35450;44.518;7.466;2023-04-24T07:06:27;3.67;;;2.10;;
49548;SDS011;35450;44.518;7.466;2023-04-24T07:09:33;3.67;;;2.45;;
49548;SDS011;35450;44.518;7.466;2023-04-24T07:12:41;4.18;;;2.33;;
49548;SDS011;35450;44.518;7.466;2023-04-24T07:15:45;3.90;;;2.55;;
49548;SDS011;35450;44.518;7.466;2023-04-24T07:18:49;4.20;;;2.30;;
49548;SDS011;35450;44.518;7.466;2023-04-24T07:21:53;4.95;;;2.67;;
49548;SDS011;35450;44.518;7.466;2023-04-24T07:24:58;7.63;;;3.80;;
49548;SDS011;35450;44.518;7.466;2023-04-24T07:28:02;6.57;;;3.45;;
49548;SDS011;35450;44.518;7.466;2023-04-24T07:31:07;8.70;;;3.85;;
49548;SDS011;35450;44.518;7.466;2023-04-24T07:34:11;5.70;;;3.78;;
49548;SDS011;35450;44.518;7.466;2023-04-24T07:37:16;6.07;;;4.05;;
49548;SDS011;35450;44.518;7.466;2023-04-24T07:40:21;8.82;;;4.15;;
49548;SDS011;35450;44.518;7.466;2023-04-24T07:43:25;6.25;;;4.43;;
49548;SDS011;35450;44.518;7.466;2023-04-24T07:46:29;5.55;;;3.92;;
49548;SDS011;35450;44.518;7.466;2023-04-24T07:49:33;10.52;;;4.60;;
49548;SDS011;35450;44.518;7.466;2023-04-24T07:52:38;4.60;;;3.58;;
49548;SDS011;35450;44.518;7.466;2023-04-24T07:55:42;5.80;;;3.65;;
49548;SDS011;35450;44.518;7.466;2023-04-24T07:58:47;5.07;;;3.53;;
49548;SDS011;35450;44.518;7.466;2023-04-24T08:01:51;7.97;;;3.58;;
49548;SDS011;35450;44.518;7.466;2023-04-24T08:04:55;5.88;;;4.10;;
49548;SDS011;35450;44.518;7.466;2023-04-24T08:07:59;6.45;;;4.20;;
49548;SDS011;35450;44.518;7.466;2023-04-24T08:11:03;15.60;;;4.93;;
49548;SDS011;35450;44.518;7.466;2023-04-24T08:14:07;5.65;;;3.45;;
49548;SDS011;35450;44.518;7.466;2023-04-24T08:17:11;5.63;;;3.28;;
49548;SDS011;35450;44.518;7.466;2023-04-24T08:20:15;5.63;;;3.70;;
49548;SDS011;35450;44.518;7.466;2023-04-24T08:23:19;6.35;;;4.18;;
49548;SDS011;35450;44.518;7.466;2023-04-24T08:26:23;5.53;;;3.22;;
49548;SDS011;35450;44.518;7.466;2023-04-24T08:29:28;6.93;;;3.95;;
49548;SDS011;35450;44.518;7.466;2023-04-24T08:32:32;4.28;;;3.40;;
49548;SDS011;35450;44.518;7.466;2023-04-24T08:35:36;5.88;;;4.00;;
49548;SDS011;35450;44.518;7.466;2023-04-24T08:38:40;6.18;;;4.45;;
49548;SDS011;35450;44.518;7.466;2023-04-24T08:41:46;11.40;;;5.25;;
49548;SDS011;35450;44.518;7.466;2023-04-24T08:44:51;7.70;;;4.65;;
49548;SDS011;35450;44.518;7.466;2023-04-24T08:47:55;13.32;;;4.90;;
49548;SDS011;35450;44.518;7.466;2023-04-24T08:51:01;4.63;;;3.97;;
49548;SDS011;35450;44.518;7.466;2023-04-24T08:54:08;9.23;;;5.18;;
49548;SDS011;35450;44.518;7.466;2023-04-24T08:57:12;8.15;;;5.00;;
49548;SDS011;35450;44.518;7.466;2023-04-24T09:00:19;7.28;;;5.38;;
49548;SDS011;35450;44.518;7.466;2023-04-24T09:03:24;7.07;;;5.78;;
49548;SDS011;35450;44.518;7.466;2023-04-24T09:06:31;7.93;;;5.68;;
49548;SDS011;35450;44.518;7.466;2023-04-24T09:09:35;13.18;;;7.00;;
49548;SDS011;35450;44.518;7.466;2023-04-24T09:12:42;9.32;;;7.15;;
49548;SDS011;35450;44.518;7.466;2023-04-24T09:15:47;8.70;;;6.43;;
49548;SDS011;35450;44.518;7.466;2023-04-24T09:18:51;16.27;;;6.82;;
49548;SDS011;35450;44.518;7.466;2023-04-24T09:21:56;12.90;;;6.70;;
49548;SDS011;35450;44.518;7.466;2023-04-24T09:25:04;11.10;;;6.85;;
49548;SDS011;35450;44.518;7.466;2023-04-24T09:28:10;11.38;;;6.35;;
49548;SDS011;35450;44.518;7.466;2023-04-24T09:31:15;13.48;;;6.90;;
49548;SDS011;35450;44.518;7.466;2023-04-24T09:34:22;10.70;;;8.25;;
49548;SDS011;35450;44.518;7.466;2023-04-24T09:37:28;11.63;;;6.70;;
49548;SDS011;35450;44.518;7.466;2023-04-24T09:40:34;14.57;;;9.25;;
49548;SDS011;35450;44.518;7.466;2023-04-24T09:43:39;15.88;;;9.10;;
49548;SDS011;35450;44.518;7.466;2023-04-24T09:46:44;9.80;;;5.60;;
49548;SDS011;35450;44.518;7.466;2023-04-24T09:49:53;10.45;;;7.50;;
49548;SDS011;35450;44.518;7.466;2023-04-24T09:53:02;10.93;;;6.88;;
49548;SDS011;35450;44.518;7.466;2023-04-24T09:56:09;11.02;;;7.20;;
49548;SDS011;35450;44.518;7.466;2023-04-24T09:59:14;9.13;;;6.57;;
49548;SDS011;35450;44.518;7.466;2023-04-24T10:02:19;6.07;;;4.95;;
49548;SDS011;35450;44.518;7.466;2023-04-24T10:05:24;7.93;;;5.15;;
49548;SDS011;35450;44.518;7.466;2023-04-24T10:08:34;8.48;;;5.65;;
49548;SDS011;35450;44.518;7.466;2023-04-24T10:11:41;9.40;;;5.60;;
49548;SDS011;35450;44.518;7.466;2023-04-24T10:14:50;1.27;;;0.90;;
49548;SDS011;35450;44.518;7.466;2023-04-24T10:17:54;6.88;;;3.25;;
49548;SDS011;35450;44.518;7.466;2023-04-24T10:21:02;2.60;;;1.67;;
49548;SDS011;35450;44.518;7.466;2023-04-24T10:24:06;3.03;;;1.80;;
49548;SDS011;35450;44.518;7.466;2023-04-24T10:27:10;5.18;;;2.45;;
49548;SDS011;35450;44.518;7.466;2023-04-24T10:30:16;3.35;;;1.80;;
49548;SDS011;35450;44.518;7.466;2023-04-24T10:33:22;1.15;;;0.98;;
49548;SDS011;35450;44.518;7.466;2023-04-24T10:36:27;2.67;;;1.55;;
49548;SDS011;35450;44.518;7.466;2023-04-24T10:39:36;2.72;;;1.70;;
49548;SDS011;35450;44.518;7.466;2023-04-24T10:42:40;1.10;;;0.75;;
49548;SDS011;35450;44.518;7.466;2023-04-24T10:46:01;6.15;;;1.63;;
49548;SDS011;35450;44.518;7.466;2023-04-24T10:49:07;3.05;;;1.95;;
49548;SDS011;35450;44.518;7.466;2023-04-24T10:52:12;4.25;;;2.40;;
49548;SDS011;35450;44.518;7.466;2023-04-24T10:58:50;3.03;;;2.30;;
49548;SDS011;35450;44.518;7.466;2023-04-24T11:01:56;3.95;;;2.63;;
49548;SDS011;35450;44.518;7.466;2023-04-24T11:05:02;6.95;;;3.25;;
49548;SDS011;35450;44.518;7.466;2023-04-24T11:08:14;4.30;;;2.60;;
49548;SDS011;35450;44.518;7.466;2023-04-24T11:11:20;3.67;;;2.47;;
49548;SDS011;35450;44.518;7.466;2023-04-24T11:14:25;3.25;;;2.20;;
49548;SDS011;35450;44.518;7.466;2023-04-24T11:17:29;5.95;;;2.03;;
49548;SDS011;35450;44.518;7.466;2023-04-24T11:20:35;1.33;;;1.00;;
49548;SDS011;35450;44.518;7.466;2023-04-24T11:23:39;1.08;;;0.70;;
49548;SDS011;35450;44.518;7.466;2023-04-24T11:26:44;2.58;;;0.90;;
49548;SDS011;35450;44.518;7.466;2023-04-24T11:33:13;5.15;;;1.63;;
49548;SDS011;35450;44.518;7.466;2023-04-24T11:36:24;3.67;;;1.10;;
49548;SDS011;35450;44.518;7.466;2023-04-24T11:39:29;3.20;;;0.90;;
49548;SDS011;35450;44.518;7.466;2023-04-24T11:42:40;1.23;;;0.93;;
49548;SDS011;35450;44.518;7.466;2023-04-24T11:45:49;3.33;;;1.13;;
49548;SDS011;35450;44.518;7.466;2023-04-24T11:48:53;2.60;;;1.20;;
49548;SDS011;35450;44.518;7.466;2023-04-24T11:51:57;2.80;;;1.15;;
49548;SDS011;35450;44.518;7.466;2023-04-24T11:58:20;1.83;;;0.90;;
49548;SDS011;35450;44.518;7.466;2023-04-24T12:01:25;3.28;;;1.30;;
49548;SDS011;35450;44.518;7.466;2023-04-24T12:04:37;3.42;;;0.60;;
49548;SDS011;35450;44.518;7.466;2023-04-24T12:07:43;1.13;;;0.52;;
49548;SDS011;35450;44.518;7.466;2023-04-24T12:10:47;5.57;;;0.55;;
49548;SDS011;35450;44.518;7.466;2023-04-24T12:13:55;1.35;;;0.60;;
49548;SDS011;35450;44.518;7.466;2023-04-24T12:16:59;1.67;;;0.40;;
49548;SDS011;35450;44.518;7.466;2023-04-24T12:20:07;4.95;;;0.70;;
49548;SDS011;35450;44.518;7.466;2023-04-24T12:23:11;0.75;;;0.52;;
49548;SDS011;35450;44.518;7.466;2023-04-24T12:26:19;1.83;;;0.60;;
49548;SDS011;35450;44.518;7.466;2023-04-24T12:29:24;3.33;;;0.80;;
49548;SDS011;35450;44.518;7.466;2023-04-24T12:32:29;3.45;;;0.70;;
49548;SDS011;35450;44.518;7.466;2023-04-24T12:35:33;0.95;;;0.63;;
49548;SDS011;35450;44.518;7.466;2023-04-24T12:38:39;4.55;;;1.00;;
49548;SDS011;35450;44.518;7.466;2023-04-24T12:41:55;2.15;;;0.85;;
49548;SDS011;35450;44.518;7.466;2023-04-24T12:45:05;1.73;;;1.15;;
49548;SDS011;35450;44.518;7.466;2023-04-24T12:48:10;3.45;;;0.90;;
49548;SDS011;35450;44.518;7.466;2023-04-24T12:51:15;1.45;;;1.10;;
49548;SDS011;35450;44.518;7.466;2023-04-24T12:54:19;4.68;;;1.00;;
49548;SDS011;35450;44.518;7.466;2023-04-24T12:57:23;0.95;;;0.60;;
49548;SDS011;35450;44.518;7.466;2023-04-24T13:00:28;3.25;;;0.88;;
49548;SDS011;35450;44.518;7.466;2023-04-24T13:03:32;1.33;;;0.70;;
49548;SDS011;35450;44.518;7.466;2023-04-24T13:06:36;2.47;;;0.60;;
49548;SDS011;35450;44.518;7.466;2023-04-24T13:09:41;2.10;;;0.80;;
49548;SDS011;35450;44.518;7.466;2023-04-24T13:12:45;0.77;;;0.60;;
49548;SDS011;35450;44.518;7.466;2023-04-24T13:15:49;3.83;;;0.85;;
49548;SDS011;35450;44.518;7.466;2023-04-24T13:18:54;1.52;;;0.70;;
49548;SDS011;35450;44.518;7.466;2023-04-24T13:21:58;2.70;;;0.70;;
49548;SDS011;35450;44.518;7.466;2023-04-24T13:25:02;4.00;;;0.80;;
49548;SDS011;35450;44.518;7.466;2023-04-24T13:28:06;1.25;;;0.80;;
49548;SDS011;35450;44.518;7.466;2023-04-24T13:31:11;0.55;;;0.52;;
49548;SDS011;35450;44.518;7.466;2023-04-24T13:34:15;3.58;;;0.80;;
49548;SDS011;35450;44.518;7.466;2023-04-24T13:37:19;2.05;;;0.75;;
49548;SDS011;35450;44.518;7.466;2023-04-24T13:40:23;1.67;;;0.68;;
49548;SDS011;35450;44.518;7.466;2023-04-24T13:43:26;1.63;;;0.57;;
49548;SDS011;35450;44.518;7.466;2023-04-24T13:46:30;0.93;;;0.63;;
49548;SDS011;35450;44.518;7.466;2023-04-24T13:49:34;3.80;;;0.47;;
49548;SDS011;35450;44.518;7.466;2023-04-24T13:52:39;1.00;;;0.38;;
49548;SDS011;35450;44.518;7.466;2023-04-24T13:55:43;2.85;;;0.45;;
49548;SDS011;35450;44.518;7.466;2023-04-24T13:58:47;0.40;;;0.20;;
49548;SDS011;35450;44.518;7.466;2023-04-24T14:01:51;1.67;;;0.40;;
49548;SDS011;35450;44.518;7.466;2023-04-24T14:04:55;1.45;;;0.35;;
49548;SDS011;35450;44.518;7.466;2023-04-24T14:07:59;0.47;;;0.15;;
49548;SDS011;35450;44.518;7.466;2023-04-24T14:11:03;1.65;;;0.47;;
49548;SDS011;35450;44.518;7.466;2023-04-24T14:14:08;2.38;;;0.20;;
49548;SDS011;35450;44.518;7.466;2023-04-24T14:17:12;1.02;;;0.17;;
49548;SDS011;35450;44.518;7.466;2023-04-24T14:20:16;5.25;;;0.40;;
49548;SDS011;35450;44.518;7.466;2023-04-24T14:23:20;0.57;;;0.20;;
49548;SDS011;35450;44.518;7.466;2023-04-24T14:26:24;3.53;;;0.30;;
49548;SDS011;35450;44.518;7.466;2023-04-24T14:29:28;1.20;;;0.20;;
49548;SDS011;35450;44.518;7.466;2023-04-24T14:32:32;4.30;;;0.20;;
49548;SDS011;35450;44.518;7.466;2023-04-24T14:35:36;3.28;;;0.20;;
49548;SDS011;35450;44.518;7.466;2023-04-24T14:38:40;1.85;;;0.10;;
49548;SDS011;35450;44.518;7.466;2023-04-24T14:41:44;2.80;;;0.10;;
49548;SDS011;35450;44.518;7.466;2023-04-24T14:44:48;0.65;;;0.30;;
49548;SDS011;35450;44.518;7.466;2023-04-24T14:47:52;4.57;;;0.15;;
49548;SDS011;35450;44.518;7.466;2023-04-24T14:50:57;0.30;;;0.20;;
49548;SDS011;35450;44.518;7.466;2023-04-24T14:54:01;1.67;;;0.20;;
49548;SDS011;35450;44.518;7.466;2023-04-24T14:57:06;0.80;;;0.20;;
49548;SDS011;35450;44.518;7.466;2023-04-24T15:00:11;2.38;;;0.10;;
49548;SDS011;35450;44.518;7.466;2023-04-24T15:03:15;4.25;;;0.20;;
49548;SDS011;35450;44.518;7.466;2023-04-24T15:06:20;0.30;;;0.13;;
49548;SDS011;35450;44.518;7.466;2023-04-24T15:09:24;2.70;;;0.20;;
49548;SDS011;35450;44.518;7.466;2023-04-24T15:12:29;1.02;;;0.20;;
49548;SDS011;35450;44.518;7.466;2023-04-24T15:15:34;0.30;;;0.13;;
49548;SDS011;35450;44.518;7.466;2023-04-24T15:18:38;0.60;;;0.17;;
49548;SDS011;35450;44.518;7.466;2023-04-24T15:21:43;0.32;;;0.30;;
49548;SDS011;35450;44.518;7.466;2023-04-24T15:24:47;0.93;;;0.22;;
49548;SDS011;35450;44.518;7.466;2023-04-24T15:27:51;1.33;;;0.20;;
49548;SDS011;35450;44.518;7.466;2023-04-24T15:30:55;3.28;;;0.20;;
49548;SDS011;35450;44.518;7.466;2023-04-24T15:33:59;1.73;;;0.10;;
49548;SDS011;35450;44.518;7.466;2023-04-24T15:37:03;1.60;;;0.35;;
49548;SDS011;35450;44.518;7.466;2023-04-24T15:40:08;0.43;;;0.15;;
49548;SDS011;35450;44.518;7.466;2023-04-24T15:43:14;4.38;;;0.30;;
49548;SDS011;35450;44.518;7.466;2023-04-24T15:46:19;3.55;;;0.30;;
49548;SDS011;35450;44.518;7.466;2023-04-24T15:49:23;2.20;;;0.20;;
49548;SDS011;35450;44.518;7.466;2023-04-24T15:52:28;3.03;;;0.20;;
49548;SDS011;35450;44.518;7.466;2023-04-24T15:55:32;0.55;;;0.20;;
49548;SDS011;35450;44.518;7.466;2023-04-24T15:58:37;3.38;;;0.20;;
49548;SDS011;35450;44.518;7.466;2023-04-24T16:01:41;0.52;;;0.20;;
49548;SDS011;35450;44.518;7.466;2023-04-24T16:04:45;6.90;;;0.30;;
49548;SDS011;35450;44.518;7.466;2023-04-24T16:07:50;3.03;;;0.30;;
49548;SDS011;35450;44.518;7.466;2023-04-24T16:10:54;2.40;;;0.30;;
49548;SDS011;35450;44.518;7.466;2023-04-24T16:13:58;2.70;;;0.30;;
49548;SDS011;35450;44.518;7.466;2023-04-24T16:17:03;0.20;;;0.10;;
49548;SDS011;35450;44.518;7.466;2023-04-24T16:20:07;0.93;;;0.50;;
49548;SDS011;35450;44.518;7.466;2023-04-24T16:23:12;4.07;;;0.57;;
49548;SDS011;35450;44.518;7.466;2023-04-24T16:26:17;3.60;;;0.30;;
49548;SDS011;35450;44.518;7.466;2023-04-24T16:29:21;1.08;;;0.20;;
49548;SDS011;35450;44.518;7.466;2023-04-24T16:32:25;6.03;;;0.43;;
49548;SDS011;35450;44.518;7.466;2023-04-24T16:35:29;0.70;;;0.28;;
49548;SDS011;35450;44.518;7.466;2023-04-24T16:38:34;1.17;;;0.20;;
49548;SDS011;35450;44.518;7.466;2023-04-24T16:41:38;0.85;;;0.32;;
49548;SDS011;35450;44.518;7.466;2023-04-24T16:44:42;3.63;;;0.35;;
49548;SDS011;35450;44.518;7.466;2023-04-24T16:47:47;3.42;;;0.30;;
49548;SDS011;35450;44.518;7.466;2023-04-24T16:50:51;2.17;;;0.57;;
49548;SDS011;35450;44.518;7.466;2023-04-24T16:53:55;3.88;;;0.20;;
49548;SDS011;35450;44.518;7.466;2023-04-24T16:56:59;1.60;;;0.75;;
49548;SDS011;35450;44.518;7.466;2023-04-24T17:00:03;8.25;;;1.90;;
49548;SDS011;35450;44.518;7.466;2023-04-24T17:03:09;2.00;;;0.60;;
49548;SDS011;35450;44.518;7.466;2023-04-24T17:06:13;1.98;;;0.40;;
49548;SDS011;35450;44.518;7.466;2023-04-24T17:09:18;2.70;;;0.30;;
49548;SDS011;35450;44.518;7.466;2023-04-24T17:12:23;0.70;;;0.30;;
49548;SDS011;35450;44.518;7.466;2023-04-24T17:15:27;1.10;;;0.30;;
49548;SDS011;35450;44.518;7.466;2023-04-24T17:18:31;1.90;;;0.47;;
49548;SDS011;35450;44.518;7.466;2023-04-24T17:21:35;1.42;;;0.43;;
49548;SDS011;35450;44.518;7.466;2023-04-24T17:24:39;3.75;;;0.43;;
49548;SDS011;35450;44.518;7.466;2023-04-24T17:27:43;1.55;;;0.45;;
49548;SDS011;35450;44.518;7.466;2023-04-24T17:30:47;3.88;;;0.50;;
49548;SDS011;35450;44.518;7.466;2023-04-24T17:33:51;1.08;;;0.40;;
49548;SDS011;35450;44.518;7.466;2023-04-24T17:36:56;0.88;;;0.20;;
49548;SDS011;35450;44.518;7.466;2023-04-24T17:40:00;2.88;;;0.30;;
49548;SDS011;35450;44.518;7.466;2023-04-24T17:43:04;0.45;;;0.20;;
49548;SDS011;35450;44.518;7.466;2023-04-24T17:46:07;0.80;;;0.30;;
49548;SDS011;35450;44.518;7.466;2023-04-24T17:49:11;0.88;;;0.20;;
49548;SDS011;35450;44.518;7.466;2023-04-24T17:52:15;0.50;;;0.30;;
49548;SDS011;35450;44.518;7.466;2023-04-24T17:55:19;4.65;;;0.40;;
49548;SDS011;35450;44.518;7.466;2023-04-24T17:58:24;2.28;;;0.20;;
49548;SDS011;35450;44.518;7.466;2023-04-24T18:01:28;4.57;;;1.02;;
49548;SDS011;35450;44.518;7.466;2023-04-24T18:04:32;1.20;;;0.40;;
49548;SDS011;35450;44.518;7.466;2023-04-24T18:07:36;4.00;;;1.20;;
49548;SDS011;35450;44.518;7.466;2023-04-24T18:10:41;6.63;;;1.00;;
49548;SDS011;35450;44.518;7.466;2023-04-24T18:13:45;7.25;;;1.20;;
49548;SDS011;35450;44.518;7.466;2023-04-24T18:16:50;5.75;;;1.52;;
49548;SDS011;35450;44.518;7.466;2023-04-24T18:19:54;4.30;;;1.10;;
49548;SDS011;35450;44.518;7.466;2023-04-24T18:22:58;5.82;;;1.60;;
49548;SDS011;35450;44.518;7.466;2023-04-24T18:26:02;6.63;;;1.15;;
49548;SDS011;35450;44.518;7.466;2023-04-24T18:29:06;10.23;;;1.48;;
49548;SDS011;35450;44.518;7.466;2023-04-24T18:32:10;6.15;;;1.13;;
49548;SDS011;35450;44.518;7.466;2023-04-24T18:35:15;6.13;;;0.95;;
49548;SDS011;35450;44.518;7.466;2023-04-24T18:38:19;8.00;;;1.65;;